TimeCST,TemperatureF,Dew PointF,Humidity,Sea Level PressureIn,VisibilityMPH,Wind Direction,Wind SpeedMPH,Gust SpeedMPH,PrecipitationIn,Events,Conditions,WindDirDegrees,DateUTC
12:53 AM,30.0,27.0,88,30.35,7.0,Calm,Calm,-,N/A,,Clear,0,2012-11-29 06:53:00
1:53 AM,28.9,26.1,89,30.34,8.0,Calm,Calm,-,N/A,,Clear,0,2012-11-29 07:53:00
2:53 AM,28.9,25.0,85,30.34,7.0,Calm,Calm,-,N/A,,Clear,0,2012-11-29 08:53:00
4:53 AM,28.0,26.1,92,30.34,6.0,Calm,Calm,-,N/A,,Clear,0,2012-11-29 10:53:00
5:53 AM,28.0,24.1,85,30.35,9.0,Calm,Calm,-,N/A,,Clear,0,2012-11-29 11:53:00
6:53 AM,28.0,25.0,88,30.37,6.0,Calm,Calm,-,N/A,,Clear,0,2012-11-29 12:53:00
7:53 AM,32.0,27.0,82,30.36,6.0,Calm,Calm,-,N/A,,Haze,0,2012-11-29 13:53:00
8:53 AM,39.0,32.0,76,30.36,10.0,SSE,3.5,-,N/A,,Clear,150,2012-11-29 14:53:00
10:53 AM,50.0,33.1,52,30.33,10.0,SSW,12.7,-,N/A,,Clear,200,2012-11-29 16:53:00
11:53 AM,54.0,33.1,45,30.29,10.0,SSW,9.2,-,N/A,,Clear,200,2012-11-29 17:53:00
12:53 PM,55.9,32.0,40,30.26,10.0,South,11.5,-,N/A,,Clear,180,2012-11-29 18:53:00
1:53 PM,57.0,34.0,42,30.23,10.0,South,9.2,-,N/A,,Clear,180,2012-11-29 19:53:00
2:53 PM,57.0,34.0,42,30.21,10.0,South,8.1,-,N/A,,Clear,180,2012-11-29 20:53:00
3:53 PM,55.9,34.0,44,30.21,10.0,South,8.1,-,N/A,,Clear,180,2012-11-29 21:53:00
4:53 PM,52.0,34.0,50,30.21,10.0,South,8.1,-,N/A,,Clear,170,2012-11-29 22:53:00
5:53 PM,50.0,32.0,50,30.22,10.0,South,6.9,-,N/A,,Clear,170,2012-11-29 23:53:00
6:53 PM,46.9,34.0,61,30.22,10.0,South,8.1,-,N/A,,Clear,170,2012-11-30 00:53:00
7:53 PM,46.9,33.1,59,30.22,10.0,South,4.6,-,N/A,,Clear,180,2012-11-30 01:53:00
8:53 PM,46.9,32.0,56,30.22,10.0,South,4.6,-,N/A,,Clear,190,2012-11-30 02:53:00
9:53 PM,42.1,32.0,67,30.22,10.0,SSW,3.5,-,N/A,,Clear,210,2012-11-30 03:53:00
10:53 PM,39.9,30.9,70,30.21,10.0,Calm,Calm,-,N/A,,Clear,0,2012-11-30 04:53:00
11:53 PM,42.1,30.9,65,30.21,10.0,SSW,8.1,-,N/A,,Clear,200,2012-11-30 05:53:00